createdAt,value
2019-03-04T00:01:14.957Z,13.50
2019-03-04T00:03:46.053Z,13.50
2019-03-04T00:06:16.635Z,13.60
2019-03-04T00:08:46.943Z,13.60
2019-03-04T00:11:17.253Z,13.60
2019-03-04T00:13:47.549Z,13.60
2019-03-04T00:16:17.813Z,13.70
2019-03-04T00:18:48.518Z,13.70
2019-03-04T00:21:18.810Z,13.60
2019-03-04T00:23:49.050Z,13.70
2019-03-04T00:26:19.446Z,13.70
2019-03-04T00:28:49.650Z,13.80
2019-03-04T00:31:20.150Z,13.80
2019-03-04T00:33:50.615Z,13.80
2019-03-04T00:36:20.804Z,13.70
2019-03-04T00:38:51.291Z,13.70
2019-03-04T00:41:21.844Z,13.70
2019-03-04T00:43:52.353Z,13.70
2019-03-04T00:46:22.616Z,13.70
2019-03-04T00:48:53.123Z,13.70
2019-03-04T00:51:23.522Z,13.60
2019-03-04T00:53:53.985Z,13.60
2019-03-04T00:56:24.197Z,13.60
2019-03-04T00:58:54.449Z,13.70
2019-03-04T01:01:24.822Z,13.70
2019-03-04T01:03:55.108Z,13.70
2019-03-04T01:06:25.369Z,13.80
2019-03-04T01:08:55.869Z,13.70
2019-03-04T01:11:26.148Z,13.80
2019-03-04T01:13:56.657Z,13.80
2019-03-04T01:16:27.232Z,13.90
2019-03-04T01:18:58.052Z,13.80
2019-03-04T01:21:28.265Z,13.90
2019-03-04T01:23:59.020Z,13.90
2019-03-04T01:26:29.606Z,13.90
2019-03-04T01:29:00.519Z,13.90
2019-03-04T01:31:30.924Z,13.90
2019-03-04T01:34:01.245Z,14.00
2019-03-04T01:36:31.467Z,14.00
2019-03-04T01:39:02.027Z,14.00
2019-03-04T01:41:32.327Z,14.00
2019-03-04T01:44:02.573Z,14.00
2019-03-04T01:46:32.757Z,14.00
2019-03-04T01:49:03.338Z,14.00
2019-03-04T01:51:34.111Z,14.00
2019-03-04T01:54:04.424Z,13.90
2019-03-04T01:56:34.967Z,14.00
2019-03-04T01:59:06.229Z,14.10
2019-03-04T02:01:36.669Z,14.10
2019-03-04T02:04:07.210Z,14.00
2019-03-04T02:06:37.459Z,14.00
2019-03-04T02:09:08.807Z,14.00
2019-03-04T02:11:39.345Z,14.00
2019-03-04T02:14:10.002Z,14.00
2019-03-04T02:16:40.406Z,14.00
2019-03-04T02:19:11.014Z,14.10
2019-03-04T02:21:41.254Z,14.00
2019-03-04T02:24:26.281Z,14.10
2019-03-04T02:26:59.199Z,14.10
2019-03-04T02:29:29.489Z,14.10
2019-03-04T02:31:59.970Z,14.00
2019-03-04T02:34:30.910Z,14.20
2019-03-04T02:37:01.163Z,14.00
2019-03-04T02:39:31.642Z,14.10
2019-03-04T02:42:01.996Z,14.10
2019-03-04T02:44:32.312Z,14.10
2019-03-04T02:47:02.694Z,14.10
2019-03-04T02:49:32.961Z,14.00
2019-03-04T02:52:03.535Z,14.10
2019-03-04T02:54:33.983Z,14.10
2019-03-04T02:57:04.439Z,14.10
2019-03-04T02:59:34.678Z,14.10
2019-03-04T03:02:06.489Z,14.20
2019-03-04T03:04:36.858Z,14.20
2019-03-04T03:07:07.565Z,14.10
2019-03-04T03:09:37.883Z,14.20
2019-03-04T03:12:08.342Z,14.20
2019-03-04T03:14:38.507Z,14.10
2019-03-04T03:17:09.089Z,14.10
2019-03-04T03:19:39.518Z,14.10
2019-03-04T03:22:09.776Z,14.10
2019-03-04T03:24:40.543Z,14.10
2019-03-04T03:27:11.044Z,14.10
2019-03-04T03:29:44.843Z,14.10
2019-03-04T03:32:15.427Z,14.10
2019-03-04T03:34:45.742Z,14.10
2019-03-04T03:37:16.071Z,14.10
2019-03-04T03:39:46.345Z,14.20
2019-03-04T03:42:19.003Z,14.20
2019-03-04T03:44:48.717Z,14.20
2019-03-04T03:47:19.012Z,14.20
2019-03-04T03:49:49.313Z,14.10
2019-03-04T03:52:19.554Z,14.10
2019-03-04T03:54:49.982Z,14.20
2019-03-04T03:57:20.291Z,14.10
2019-03-04T03:59:50.587Z,14.10
2019-03-04T04:02:21.168Z,14.20
2019-03-04T04:04:57.609Z,14.20
2019-03-04T04:07:27.930Z,14.20
2019-03-04T04:09:58.313Z,14.20
2019-03-04T04:12:29.356Z,14.20
2019-03-04T04:14:59.542Z,14.20
2019-03-04T04:17:29.839Z,14.10
2019-03-04T04:20:00.451Z,14.10
2019-03-04T04:22:31.035Z,14.00
2019-03-04T04:25:01.435Z,14.10
2019-03-04T04:27:31.952Z,14.00
2019-03-04T04:30:02.416Z,14.10
2019-03-04T04:32:32.741Z,14.10
2019-03-04T04:35:03.030Z,14.00
2019-03-04T04:37:33.579Z,14.10
2019-03-04T04:40:03.871Z,14.10
2019-03-04T04:42:34.198Z,14.10
2019-03-04T04:45:04.679Z,14.10
2019-03-04T04:47:35.407Z,14.10
2019-03-04T04:50:07.141Z,14.10
2019-03-04T04:52:37.715Z,14.10
2019-03-04T04:55:08.122Z,14.10
2019-03-04T04:57:38.299Z,14.20
2019-03-04T05:00:12.732Z,14.10
2019-03-04T05:02:43.269Z,14.20
2019-03-04T05:05:14.263Z,14.10
2019-03-04T05:07:44.791Z,14.10
2019-03-04T05:10:17.509Z,14.10
2019-03-04T05:12:48.768Z,14.20
2019-03-04T05:15:19.443Z,14.30
2019-03-04T05:17:51.795Z,14.30
2019-03-04T05:20:22.722Z,14.30
2019-03-04T05:22:52.999Z,14.30
2019-03-04T05:25:26.308Z,14.40
2019-03-04T05:27:56.422Z,14.40
2019-03-04T05:30:26.867Z,14.50
2019-03-04T05:33:00.183Z,14.50
2019-03-04T05:35:30.372Z,14.60
2019-03-04T05:38:00.592Z,14.50
2019-03-04T05:40:30.888Z,14.70
2019-03-04T05:43:01.125Z,14.60
2019-03-04T05:45:31.423Z,14.70
2019-03-04T05:48:01.674Z,14.70
2019-03-04T05:50:32.005Z,14.60
2019-03-04T05:53:02.486Z,14.80
2019-03-04T05:55:32.777Z,14.70
2019-03-04T05:58:03.333Z,14.70
2019-03-04T06:00:38.576Z,14.80
2019-03-04T06:03:09.468Z,14.90
2019-03-04T06:05:39.742Z,14.70
2019-03-04T06:08:10.387Z,14.80
2019-03-04T06:10:40.799Z,14.80
2019-03-04T06:13:11.059Z,14.80
2019-03-04T06:15:41.687Z,14.80
2019-03-04T06:18:11.962Z,14.80
2019-03-04T06:20:42.612Z,14.80
2019-03-04T06:23:13.501Z,14.80
2019-03-04T06:25:50.062Z,14.80
2019-03-04T06:28:20.476Z,14.80
2019-03-04T06:30:50.840Z,14.90
2019-03-04T06:33:21.146Z,14.90
2019-03-04T06:35:51.423Z,15.00
2019-03-04T06:38:21.994Z,14.80
2019-03-04T06:40:52.508Z,14.90
2019-03-04T06:43:24.169Z,14.90
2019-03-04T06:45:54.625Z,14.90
2019-03-04T06:48:25.275Z,14.40
2019-03-04T06:50:56.733Z,14.20
2019-03-04T06:54:08.402Z,13.70
2019-03-04T06:56:50.881Z,13.40
2019-03-04T06:59:42.196Z,12.90
2019-03-04T07:02:14.358Z,12.90
2019-03-04T07:05:19.737Z,12.90
2019-03-04T07:07:50.128Z,12.50
2019-03-04T07:10:20.612Z,12.50
2019-03-04T07:12:50.986Z,12.40
2019-03-04T07:15:21.338Z,12.40
2019-03-04T07:17:51.772Z,12.20
2019-03-04T07:20:22.268Z,12.20
2019-03-04T07:22:53.738Z,11.90
2019-03-04T07:25:24.145Z,12.00
2019-03-04T07:27:55.598Z,12.00
2019-03-04T07:30:26.447Z,12.00
2019-03-04T07:32:56.566Z,12.10
2019-03-04T07:35:27.009Z,12.10
2019-03-04T07:38:46.931Z,12.20
2019-03-04T07:41:17.524Z,12.10
2019-03-04T07:43:47.811Z,12.20
2019-03-04T07:46:20.222Z,12.30
2019-03-04T07:48:53.125Z,12.20
2019-03-04T07:51:24.218Z,12.30
2019-03-04T07:53:54.513Z,12.40
2019-03-04T07:56:25.473Z,12.40
2019-03-04T07:58:55.753Z,12.40
2019-03-04T08:01:26.567Z,12.30
2019-03-04T08:03:56.726Z,12.10
2019-03-04T08:06:27.680Z,12.30
2019-03-04T08:10:00.968Z,12.40
2019-03-04T08:13:20.268Z,12.50
2019-03-04T08:15:54.433Z,12.40
2019-03-04T08:18:25.091Z,12.40
2019-03-04T08:20:55.414Z,12.30
2019-03-04T08:23:26.052Z,12.50
2019-03-04T08:25:58.148Z,11.80
2019-03-04T08:28:29.362Z,11.20
2019-03-04T08:30:59.902Z,10.70
2019-03-04T08:33:30.315Z,10.50
2019-03-04T08:36:00.666Z,10.50
2019-03-04T08:38:36.369Z,10.40
2019-03-04T08:41:06.753Z,10.60
2019-03-04T08:43:38.111Z,10.40
2019-03-04T08:46:08.363Z,10.60
2019-03-04T08:48:38.679Z,10.60
2019-03-04T08:51:09.480Z,10.60
2019-03-04T08:53:39.997Z,10.80
2019-03-04T08:56:12.311Z,10.80
2019-03-04T08:58:42.340Z,10.80
2019-03-04T09:01:12.740Z,10.60
2019-03-04T09:03:43.710Z,10.70
2019-03-04T09:06:15.681Z,10.80
2019-03-04T09:08:46.033Z,11.20
2019-03-04T09:11:16.758Z,11.50
2019-03-04T09:13:47.143Z,11.80
2019-03-04T09:16:17.862Z,11.70
2019-03-04T09:18:48.243Z,11.70
2019-03-04T09:21:18.580Z,11.60
2019-03-04T09:23:50.042Z,11.50
2019-03-04T09:26:21.077Z,11.80
2019-03-04T09:28:52.157Z,12.00
2019-03-04T09:31:22.506Z,12.20
2019-03-04T09:33:52.859Z,12.40
2019-03-04T09:36:23.581Z,12.50
2019-03-04T09:39:01.771Z,12.40
2019-03-04T09:41:32.113Z,12.60
2019-03-04T09:44:02.405Z,12.80
2019-03-04T09:46:32.715Z,12.90
2019-03-04T09:49:03.093Z,13.00
2019-03-04T09:51:33.657Z,12.80
2019-03-04T09:54:03.979Z,12.80
2019-03-04T09:56:36.675Z,13.10
2019-03-04T09:59:06.989Z,12.80
2019-03-04T10:02:02.838Z,13.00
2019-03-04T10:05:42.140Z,12.80
2019-03-04T10:08:43.795Z,12.80
2019-03-04T10:11:55.288Z,13.00
2019-03-04T10:15:41.300Z,12.80
2019-03-04T10:19:14.481Z,12.70
2019-03-04T10:21:59.986Z,12.80
2019-03-04T10:25:11.660Z,13.20
2019-03-04T10:28:20.804Z,13.40
2019-03-04T10:31:54.155Z,13.50
2019-03-04T10:35:21.769Z,13.10
2019-03-04T10:38:54.801Z,13.20
2019-03-04T10:42:36.404Z,12.80
2019-03-04T10:46:00.169Z,12.70
2019-03-04T10:48:33.245Z,12.70
2019-03-04T10:51:03.573Z,12.50
2019-03-04T10:53:34.236Z,12.50
2019-03-04T10:56:04.556Z,12.20
2019-03-04T10:58:34.878Z,12.00
2019-03-04T11:01:06.645Z,11.70
2019-03-04T11:03:36.889Z,11.60
2019-03-04T11:06:07.159Z,11.50
2019-03-04T11:08:38.917Z,11.20
2019-03-04T11:11:09.188Z,10.40
2019-03-04T11:13:39.497Z,10.00
2019-03-04T11:16:09.805Z,9.80
2019-03-04T11:18:39.983Z,9.60
2019-03-04T11:21:10.352Z,9.50
2019-03-04T11:23:41.264Z,9.10
2019-03-04T11:26:11.879Z,9.10
2019-03-04T11:28:42.143Z,8.90
2019-03-04T11:31:13.480Z,9.00
2019-03-04T11:33:43.779Z,8.90
2019-03-04T11:36:14.169Z,9.00
2019-03-04T11:38:47.962Z,8.90
2019-03-04T11:41:21.498Z,9.40
2019-03-04T11:43:51.963Z,9.60
2019-03-04T11:46:24.197Z,9.80
2019-03-04T11:48:54.811Z,10.00
2019-03-04T11:51:26.019Z,10.30
2019-03-04T11:53:56.339Z,10.50
2019-03-04T11:56:26.705Z,10.70
2019-03-04T11:58:57.129Z,10.30
2019-03-04T12:01:37.124Z,10.20
2019-03-04T12:04:07.687Z,10.10
2019-03-04T12:06:39.229Z,10.10
2019-03-04T12:09:17.608Z,10.10
2019-03-04T12:11:57.649Z,10.10
2019-03-04T12:14:32.957Z,10.40
2019-03-04T12:17:03.868Z,10.40
2019-03-04T12:19:43.640Z,10.40
2019-03-04T12:22:17.597Z,10.20
2019-03-04T12:24:53.634Z,10.10
2019-03-04T12:27:24.182Z,10.30
2019-03-04T12:29:54.568Z,10.10
2019-03-04T12:32:30.915Z,10.00
2019-03-04T12:35:03.567Z,10.10
2019-03-04T12:37:33.881Z,9.70
2019-03-04T12:40:06.167Z,10.00
2019-03-04T12:42:36.523Z,10.40
2019-03-04T12:45:10.921Z,10.30
2019-03-04T12:47:41.936Z,10.50
2019-03-04T12:50:17.937Z,10.30
2019-03-04T12:52:48.296Z,9.70
2019-03-04T12:55:20.363Z,10.20
2019-03-04T12:57:51.567Z,10.50
2019-03-04T13:00:24.478Z,10.50
2019-03-04T13:02:57.959Z,10.30
2019-03-04T13:05:27.170Z,10.20
2019-03-04T13:07:57.746Z,10.60
2019-03-04T13:10:28.044Z,10.60
2019-03-04T13:12:59.713Z,10.40
2019-03-04T13:15:31.295Z,10.20
2019-03-04T13:18:01.557Z,10.40
2019-03-04T13:20:32.114Z,10.40
2019-03-04T13:23:02.283Z,10.30
2019-03-04T13:25:32.953Z,10.30
2019-03-04T13:28:08.233Z,10.40
2019-03-04T13:30:35.877Z,10.10
2019-03-04T13:33:06.755Z,10.70
2019-03-04T13:35:37.431Z,10.80
2019-03-04T13:38:07.904Z,11.00
2019-03-04T13:40:38.409Z,11.10
2019-03-04T13:43:08.775Z,10.90
2019-03-04T13:45:39.345Z,10.90
2019-03-04T13:48:09.586Z,10.70
2019-03-04T13:50:41.869Z,10.50
2019-03-04T13:53:12.394Z,10.40
2019-03-04T13:55:42.946Z,10.30
2019-03-04T13:58:13.293Z,10.40
2019-03-04T14:00:45.393Z,10.40
2019-03-04T14:03:15.728Z,10.20
2019-03-04T14:05:46.363Z,10.10
2019-03-04T14:08:19.491Z,10.20
2019-03-04T14:10:51.141Z,10.30
2019-03-04T14:13:21.706Z,10.30
2019-03-04T14:15:52.279Z,10.20
2019-03-04T14:18:22.872Z,10.60
2019-03-04T14:20:53.143Z,10.60
2019-03-04T14:23:23.457Z,10.40
2019-03-04T14:25:55.014Z,10.30
2019-03-04T14:28:25.542Z,10.60
2019-03-04T14:30:56.509Z,10.50
2019-03-04T14:33:30.299Z,10.50
2019-03-04T14:36:00.608Z,10.50
2019-03-04T14:38:30.915Z,10.40
2019-03-04T14:41:01.520Z,10.60
2019-03-04T14:43:32.758Z,10.60
2019-03-04T14:46:03.465Z,10.50
2019-03-04T14:48:33.938Z,10.50
2019-03-04T14:51:04.680Z,10.30
2019-03-04T14:53:52.210Z,10.60
2019-03-04T14:56:23.318Z,10.70
2019-03-04T14:59:09.794Z,10.70
2019-03-04T15:01:26.297Z,10.70
2019-03-04T15:03:56.571Z,10.50
2019-03-04T15:06:26.971Z,10.50
2019-03-04T15:08:57.829Z,10.20
2019-03-04T15:11:28.478Z,10.40
2019-03-04T15:13:58.945Z,10.40
2019-03-04T15:16:31.151Z,10.40
2019-03-04T15:19:01.483Z,10.50
2019-03-04T15:21:33.217Z,10.50
2019-03-04T15:24:03.740Z,10.30
2019-03-04T15:26:41.771Z,10.50
2019-03-04T15:29:07.286Z,10.40
2019-03-04T15:31:37.632Z,10.50
2019-03-04T15:34:08.124Z,10.70
2019-03-04T15:36:38.689Z,10.80
2019-03-04T15:39:22.965Z,10.90
2019-03-04T15:41:50.253Z,11.10
2019-03-04T15:44:20.726Z,11.20
2019-03-04T15:46:51.542Z,11.00
2019-03-04T15:49:22.063Z,10.80
2019-03-04T15:51:52.719Z,10.60
2019-03-04T15:54:23.000Z,10.60
2019-03-04T15:56:53.289Z,10.70
2019-03-04T15:59:23.997Z,10.80
2019-03-04T16:02:07.609Z,10.80
2019-03-04T16:04:37.916Z,10.80
2019-03-04T16:07:09.608Z,10.80
2019-03-04T16:09:40.808Z,10.80
2019-03-04T16:12:14.479Z,10.70
2019-03-04T16:14:44.971Z,10.80
2019-03-04T16:17:15.926Z,10.70
2019-03-04T16:19:46.127Z,10.70
2019-03-04T16:22:17.377Z,10.40
2019-03-04T16:24:49.227Z,10.60
2019-03-04T16:27:19.565Z,10.50
2019-03-04T16:29:50.190Z,10.50
2019-03-04T16:32:20.716Z,10.50
2019-03-04T16:34:50.994Z,10.60
2019-03-04T16:37:21.954Z,10.50
2019-03-04T16:39:52.967Z,10.40
2019-03-04T16:42:23.842Z,10.60
2019-03-04T16:44:57.528Z,10.50
2019-03-04T16:47:27.837Z,10.40
2019-03-04T16:49:58.530Z,10.50
2019-03-04T16:52:31.530Z,10.40
2019-03-04T16:55:02.512Z,10.30
2019-03-04T16:57:33.043Z,10.40
2019-03-04T17:00:03.446Z,10.20
2019-03-04T17:02:34.143Z,10.40
2019-03-04T17:05:05.251Z,10.30
2019-03-04T17:07:35.553Z,10.20
2019-03-04T17:10:06.950Z,10.30
2019-03-04T17:12:37.258Z,10.20
2019-03-04T17:15:09.040Z,10.20
2019-03-04T17:17:39.329Z,10.20
2019-03-04T17:20:11.511Z,10.10
2019-03-04T17:22:46.507Z,10.20
2019-03-04T17:25:17.520Z,10.20
2019-03-04T17:27:48.212Z,10.10
2019-03-04T17:30:19.570Z,10.10
2019-03-04T17:32:49.883Z,10.20
2019-03-04T17:35:20.206Z,10.20
2019-03-04T17:37:50.478Z,10.10
2019-03-04T17:40:21.023Z,9.90
2019-03-04T17:42:51.283Z,10.10
2019-03-04T17:45:21.625Z,10.10
2019-03-04T17:47:51.961Z,10.00
2019-03-04T17:50:33.080Z,10.00
2019-03-04T17:53:04.495Z,10.10
2019-03-04T17:55:34.940Z,9.80
2019-03-04T17:58:05.559Z,9.90
2019-03-04T18:00:38.728Z,9.90
2019-03-04T18:03:09.946Z,9.80
2019-03-04T18:05:40.539Z,9.90
2019-03-04T18:08:11.904Z,9.80
2019-03-04T18:10:42.472Z,9.70
2019-03-04T18:13:13.488Z,9.70
2019-03-04T18:15:43.764Z,9.60
2019-03-04T18:18:14.385Z,9.50
2019-03-04T18:20:44.726Z,9.50
2019-03-04T18:23:15.134Z,9.50
2019-03-04T18:25:56.443Z,9.50
2019-03-04T18:29:19.166Z,9.30
2019-03-04T18:32:51.458Z,9.30
2019-03-04T18:36:27.981Z,9.30
2019-03-04T18:39:40.950Z,9.20
2019-03-04T18:43:06.385Z,9.20
2019-03-04T18:46:26.213Z,9.20
2019-03-04T18:49:01.769Z,8.90
2019-03-04T18:51:34.119Z,9.10
2019-03-04T18:54:14.626Z,9.00
2019-03-04T18:56:45.207Z,9.00
2019-03-04T18:59:16.229Z,9.00
2019-03-04T19:01:50.790Z,9.00
2019-03-04T19:04:21.101Z,9.00
2019-03-04T19:06:51.443Z,9.00
2019-03-04T19:09:21.744Z,9.00
2019-03-04T19:11:52.632Z,9.00
2019-03-04T19:14:22.782Z,9.10
2019-03-04T19:16:55.499Z,9.10
2019-03-04T19:19:25.856Z,9.00
2019-03-04T19:21:56.486Z,9.00
2019-03-04T19:24:27.171Z,9.00
2019-03-04T19:26:57.581Z,9.10
2019-03-04T19:29:36.437Z,8.90
2019-03-04T19:32:06.867Z,9.00
2019-03-04T19:34:37.230Z,8.90
2019-03-04T19:37:10.903Z,9.00
2019-03-04T19:39:41.243Z,9.00
2019-03-04T19:42:11.586Z,9.10
2019-03-04T19:44:42.218Z,9.00
2019-03-04T19:47:12.538Z,9.00
2019-03-04T19:49:42.927Z,9.10
2019-03-04T19:52:13.140Z,9.00
2019-03-04T19:54:44.498Z,9.00
2019-03-04T19:57:24.338Z,9.00
2019-03-04T19:59:55.158Z,9.00
2019-03-04T20:02:26.746Z,9.00
2019-03-04T20:04:57.099Z,9.00
2019-03-04T20:07:27.392Z,9.00
2019-03-04T20:09:58.717Z,9.00
2019-03-04T20:12:28.987Z,9.10
2019-03-04T20:14:59.598Z,9.10
2019-03-04T20:17:29.873Z,9.10
2019-03-04T20:20:00.328Z,9.10
2019-03-04T20:22:30.721Z,9.00
2019-03-04T20:25:01.011Z,9.10
2019-03-04T20:27:31.241Z,9.10
2019-03-04T20:30:01.541Z,9.00
2019-03-04T20:32:31.912Z,9.00
2019-03-04T20:35:02.405Z,9.10
2019-03-04T20:37:33.730Z,9.00
2019-03-04T20:40:04.140Z,8.90
2019-03-04T20:42:34.718Z,9.00
2019-03-04T20:45:06.119Z,8.90
2019-03-04T20:47:36.523Z,9.00
2019-03-04T20:50:10.096Z,9.00
2019-03-04T20:52:40.622Z,8.90
2019-03-04T20:55:11.126Z,9.00
2019-03-04T20:57:52.040Z,8.90
2019-03-04T21:00:34.099Z,9.00
2019-03-04T21:03:05.406Z,9.00
2019-03-04T21:05:37.593Z,9.00
2019-03-04T21:08:08.434Z,9.00
2019-03-04T21:10:38.768Z,9.00
2019-03-04T21:13:15.125Z,9.00
2019-03-04T21:15:45.724Z,9.00
2019-03-04T21:18:16.076Z,9.10
2019-03-04T21:20:52.410Z,9.20
2019-03-04T21:23:22.800Z,9.20
2019-03-04T21:26:07.666Z,9.10
2019-03-04T21:29:30.293Z,9.10
2019-03-04T21:32:52.848Z,9.10
2019-03-04T21:36:15.877Z,9.20
2019-03-04T21:38:45.792Z,9.10
2019-03-04T21:41:48.062Z,9.20
2019-03-04T21:44:59.929Z,9.30
2019-03-04T21:47:35.487Z,9.40
2019-03-04T21:50:08.347Z,9.30
2019-03-04T21:53:09.385Z,9.20
2019-03-04T21:56:06.004Z,9.30
2019-03-04T21:58:36.356Z,9.40
2019-03-04T22:01:24.521Z,9.30
2019-03-04T22:03:55.346Z,9.30
2019-03-04T22:06:25.771Z,9.40
2019-03-04T22:08:56.129Z,9.40
2019-03-04T22:11:26.808Z,9.30
2019-03-04T22:14:03.938Z,9.40
2019-03-04T22:16:34.413Z,9.30
2019-03-04T22:19:04.708Z,9.40
2019-03-04T22:21:35.059Z,9.30
2019-03-04T22:24:05.346Z,9.40
2019-03-04T22:26:36.435Z,9.50
2019-03-04T22:29:06.733Z,9.50
2019-03-04T22:31:37.141Z,9.30
2019-03-04T22:34:08.122Z,9.30
2019-03-04T22:36:38.510Z,9.10
2019-03-04T22:39:09.390Z,9.00
2019-03-04T22:41:40.041Z,8.80
2019-03-04T22:44:12.420Z,8.80
2019-03-04T22:46:42.972Z,8.80
2019-03-04T22:49:13.347Z,8.80
2019-03-04T22:51:43.658Z,8.60
2019-03-04T22:54:15.176Z,8.60
2019-03-04T22:56:45.480Z,8.60
2019-03-04T22:59:15.777Z,8.60
2019-03-04T23:02:06.701Z,8.60
2019-03-04T23:05:06.985Z,8.60
2019-03-04T23:07:51.325Z,8.50
2019-03-04T23:10:45.591Z,8.50
2019-03-04T23:13:56.920Z,8.50
2019-03-04T23:16:30.946Z,8.50
2019-03-04T23:19:01.947Z,8.40
2019-03-04T23:21:32.725Z,8.50
2019-03-04T23:24:03.127Z,8.40
2019-03-04T23:26:34.545Z,8.20
2019-03-04T23:29:05.040Z,8.30
2019-03-04T23:31:36.503Z,8.20
2019-03-04T23:34:06.823Z,8.20
2019-03-04T23:36:37.730Z,8.10
2019-03-04T23:39:09.326Z,8.20
2019-03-04T23:41:39.842Z,8.10
2019-03-04T23:44:10.472Z,8.20
2019-03-04T23:46:40.957Z,8.30
2019-03-04T23:49:11.216Z,8.30
2019-03-04T23:51:41.496Z,8.40
2019-03-04T23:54:12.904Z,8.30
2019-03-04T23:56:43.766Z,8.30
2019-03-04T23:59:14.586Z,8.20
